Playa Vista, California
Current Conditions -  °F | °C
As of 3:53 PM on Saturday 22 Nov 2014 (Local Time) from KLAX Reporting Station
Scattered Clouds Scattered Clouds  
Wind Chill: 66°   Ceiling: Unl
Heat Index: 66°   Visibility: 10mi
Dew Point: 50°   Wind: 12mph
Humidity: 56%   Direction: 260°W
Pressure: 30.03"   Gusts: NA
Location:  33.9534°N, 118.399°W
Report Text: KLAX 222353Z 26010KT 10SM FEW016 SCT065 SCT230 SCT300 19/10 A3003 RMK AO2 SLP168 T01890100 10211 20183 55008
Loading
Personal Weather Stations






























Interactive Weather Map New forecast layout! Learn more

10-Day Weather Forecast

Advertisements
Track Severe Weather on mobile